Terminal Aerodrome Forecast
Issued by NWS Blacksburg, VA

Current Version | Previous Version | Text Only | Print | Product List | Glossary Off
Versions: 1 2 3 4 5 6 7 8 9 10 11 12 13 14 15 16 17 18 19 20 21 22 23 24 25 26 27 28 29 30 31 32 33 34 35 36 37 38 39 40 41 42 43 44 45 46 47 48 49 50

000
FTUS41 KRNK 050527
TAFBLF
TAF
KBLF 050527Z 0506/0606 00000KT P6SM -RA OVC004
     FM050800 32008KT 4SM -PL BR OVC003
     FM051500 33008KT 1SM -SN BR OVC008
     FM051900 33006KT 4SM -SN BR OVC015
     FM052200 33006KT P6SM -SN OVC025
     FM060100 32005KT P6SM OVC015=

USA.gov is the U.S. government's official web portal to all federal, state and local government web resources and services.